Terminal Aerodrome Forecast
Issued by NWS

Home | Current Version | Previous Version | Text Only | Print | Product List | Glossary On
Versions: 1 2 3 4 5 6 7 8 9 10 11 12 13 14 15 16 17 18
314
FTUS41 KPBZ 200520
TAFBVI
TAF
KBVI 200520Z 2006/2106 27012KT P6SM OVC030
      TEMPO 2006/2008 BKN015
     FM201300 23012KT P6SM SCT030
     FM201700 23012G18KT P6SM SKC
     FM202300 19006KT P6SM SKC
      AMD NOT SKED=

USA.gov is the U.S. government's official web portal to all federal, state and local government web resources and services.